createdAt,value
2018-08-18T00:02:17.679Z,18.30
2018-08-18T00:07:21.285Z,18.80
2018-08-18T00:12:29.258Z,18.70
2018-08-18T00:17:32.839Z,18.80
2018-08-18T00:22:36.515Z,18.80
2018-08-18T00:27:40.118Z,18.80
2018-08-18T00:32:43.944Z,18.70
2018-08-18T00:37:47.561Z,18.70
2018-08-18T00:42:51.181Z,18.70
2018-08-18T00:47:55.919Z,18.70
2018-08-18T00:52:59.575Z,18.60
2018-08-18T00:58:03.651Z,18.60
2018-08-18T01:03:07.429Z,18.50
2018-08-18T01:08:11.045Z,18.50
2018-08-18T01:13:14.752Z,18.50
2018-08-18T01:18:18.360Z,18.40
2018-08-18T01:23:22.037Z,18.30
2018-08-18T01:28:25.787Z,18.30
2018-08-18T01:33:29.344Z,18.30
2018-08-18T01:38:36.133Z,18.20
2018-08-18T01:43:39.704Z,18.10
2018-08-18T01:48:43.251Z,18.20
2018-08-18T01:53:49.273Z,18.10
2018-08-18T01:58:52.898Z,18.20
2018-08-18T02:03:56.663Z,18.20
2018-08-18T02:09:00.259Z,18.10
2018-08-18T02:14:03.979Z,18.10
2018-08-18T02:19:07.542Z,18.00
2018-08-18T02:24:11.957Z,18.00
2018-08-18T02:29:15.554Z,18.00
2018-08-18T02:34:21.356Z,18.00
2018-08-18T02:39:25.014Z,17.90
2018-08-18T02:44:28.605Z,17.90
2018-08-18T02:49:36.376Z,17.80
2018-08-18T02:54:40.988Z,17.70
2018-08-18T02:59:46.428Z,17.70
2018-08-18T03:04:50.004Z,17.70
2018-08-18T03:09:53.974Z,17.70
2018-08-18T03:14:57.687Z,17.60
2018-08-18T03:20:01.232Z,17.50
2018-08-18T03:25:06.804Z,17.50
2018-08-18T03:30:10.456Z,17.50
2018-08-18T03:35:14.045Z,17.50
2018-08-18T03:40:17.618Z,17.40
2018-08-18T03:45:21.256Z,17.40
2018-08-18T03:50:28.197Z,17.40
2018-08-18T03:55:38.437Z,17.20
2018-08-18T04:00:44.547Z,17.30
2018-08-18T04:05:48.180Z,17.30
2018-08-18T04:10:53.841Z,17.20
2018-08-18T04:15:57.419Z,17.20
2018-08-18T04:21:01.060Z,17.20
2018-08-18T04:26:06.763Z,17.20
2018-08-18T04:31:10.643Z,17.10
2018-08-18T04:36:14.208Z,17.10
2018-08-18T04:41:17.791Z,17.10
2018-08-18T04:46:21.326Z,17.10
2018-08-18T04:51:24.901Z,17.00
2018-08-18T04:56:28.619Z,17.20
2018-08-18T05:01:32.303Z,17.50
2018-08-18T05:06:37.851Z,17.50
2018-08-18T05:11:41.690Z,18.00
2018-08-18T05:16:45.320Z,18.00
2018-08-18T05:21:48.922Z,18.40
2018-08-18T05:26:53.868Z,18.60
2018-08-18T05:31:57.538Z,18.90
2018-08-18T05:37:02.039Z,19.40
2018-08-18T05:42:05.679Z,19.60
2018-08-18T05:47:09.411Z,19.70
2018-08-18T05:52:13.022Z,19.80
2018-08-18T05:57:16.643Z,20.10
2018-08-18T06:02:21.373Z,20.10
2018-08-18T06:07:24.892Z,20.70
2018-08-18T06:12:28.950Z,20.70
2018-08-18T06:17:32.826Z,20.50
2018-08-18T06:22:37.144Z,20.80
2018-08-18T06:27:42.739Z,20.50
2018-08-18T06:32:48.907Z,20.60
2018-08-18T06:37:57.978Z,20.50
2018-08-18T06:43:03.952Z,20.80
2018-08-18T06:48:23.713Z,20.80
2018-08-18T06:53:29.392Z,20.60
2018-08-18T06:58:33.028Z,21.00
2018-08-18T07:03:38.659Z,21.00
2018-08-18T07:08:47.698Z,20.50
2018-08-18T07:13:51.342Z,20.80
2018-08-18T07:18:55.133Z,20.40
2018-08-18T07:23:58.821Z,20.40
2018-08-18T07:29:02.745Z,20.50
2018-08-18T07:34:06.183Z,20.60
2018-08-18T07:39:09.823Z,20.60
2018-08-18T07:44:13.434Z,20.70
2018-08-18T07:49:17.244Z,20.70
2018-08-18T07:54:20.956Z,20.50
2018-08-18T07:59:24.649Z,20.80
2018-08-18T08:04:28.236Z,21.10
2018-08-18T08:09:31.840Z,20.70
2018-08-18T08:14:35.471Z,21.00
2018-08-18T08:19:39.180Z,21.00
2018-08-18T08:24:43.289Z,20.60
2018-08-18T08:29:47.375Z,20.60
2018-08-18T08:34:51.097Z,20.90
2018-08-18T08:39:54.718Z,21.00
2018-08-18T08:44:58.620Z,21.00
2018-08-18T08:50:02.263Z,21.30
2018-08-18T08:55:07.992Z,21.40
2018-08-18T09:00:12.142Z,21.80
2018-08-18T09:05:15.853Z,21.90
2018-08-18T09:10:19.537Z,21.90
2018-08-18T09:15:23.134Z,22.80
2018-08-18T09:20:27.944Z,22.70
2018-08-18T09:25:32.613Z,22.50
2018-08-18T09:30:36.546Z,23.10
2018-08-18T09:35:54.951Z,23.80
2018-08-18T09:40:58.567Z,22.60
2018-08-18T09:46:02.324Z,22.70
2018-08-18T09:51:08.177Z,22.90
2018-08-18T09:56:11.838Z,23.80
2018-08-18T10:01:15.478Z,23.60
2018-08-18T10:06:19.147Z,23.50
2018-08-18T10:11:22.768Z,24.40
2018-08-18T10:16:26.482Z,24.80
2018-08-18T10:21:30.244Z,25.20
2018-08-18T10:26:33.956Z,24.90
2018-08-18T10:31:42.112Z,24.70
2018-08-18T10:36:48.613Z,24.80
2018-08-18T10:41:59.184Z,24.90
2018-08-18T10:47:15.504Z,24.40
2018-08-18T10:52:31.531Z,24.80
2018-08-18T10:57:48.884Z,24.80
2018-08-18T11:02:53.750Z,24.60
2018-08-18T11:08:04.526Z,25.20
2018-08-18T11:13:08.330Z,25.30
2018-08-18T11:18:12.030Z,25.00
2018-08-18T11:23:15.850Z,25.00
2018-08-18T11:28:20.200Z,25.10
2018-08-18T11:33:42.011Z,25.20
2018-08-18T11:38:45.709Z,25.50
2018-08-18T11:43:50.590Z,25.60
2018-08-18T11:48:54.361Z,25.50
2018-08-18T11:54:01.109Z,25.70
2018-08-18T11:59:16.235Z,25.80
2018-08-18T12:04:21.293Z,25.70
2018-08-18T12:09:25.099Z,25.80
2018-08-18T12:14:28.710Z,26.50
2018-08-18T12:19:32.354Z,26.40
2018-08-18T12:24:36.345Z,26.00
2018-08-18T12:29:40.199Z,25.60
2018-08-18T12:34:43.800Z,26.30
2018-08-18T12:39:47.544Z,26.20
2018-08-18T12:44:51.302Z,26.10
2018-08-18T12:49:55.035Z,26.00
2018-08-18T12:54:58.938Z,26.40
2018-08-18T13:00:02.562Z,26.40
2018-08-18T13:05:06.239Z,26.20
2018-08-18T13:10:18.307Z,26.80
2018-08-18T13:15:22.054Z,26.60
2018-08-18T13:20:26.849Z,26.90
2018-08-18T13:25:30.720Z,27.10
2018-08-18T13:30:34.345Z,27.00
2018-08-18T13:35:38.790Z,26.30
2018-08-18T13:40:42.344Z,26.60
2018-08-18T13:45:46.066Z,26.20
2018-08-18T13:50:49.804Z,26.20
2018-08-18T13:55:53.466Z,26.30
2018-08-18T14:00:57.218Z,26.40
2018-08-18T14:06:00.812Z,26.00
2018-08-18T14:11:04.638Z,26.00
2018-08-18T14:16:08.204Z,25.80
2018-08-18T14:21:11.879Z,26.20
2018-08-18T14:26:15.554Z,26.20
2018-08-18T14:31:19.365Z,26.20
2018-08-18T14:36:24.066Z,25.70
2018-08-18T14:41:42.424Z,26.20
2018-08-18T14:46:47.263Z,25.20
2018-08-18T14:51:50.935Z,25.50
2018-08-18T14:56:54.533Z,25.60
2018-08-18T15:01:58.193Z,25.70
2018-08-18T15:07:01.768Z,25.10
2018-08-18T15:12:05.485Z,25.60
2018-08-18T15:17:09.190Z,24.50
2018-08-18T15:22:13.317Z,25.40
2018-08-18T15:27:17.022Z,25.40
2018-08-18T15:32:20.669Z,25.60
2018-08-18T15:37:24.327Z,25.50
2018-08-18T15:42:27.891Z,25.40
2018-08-18T15:47:31.563Z,25.20
2018-08-18T15:52:35.546Z,25.10
2018-08-18T15:57:39.172Z,25.00
2018-08-18T16:02:42.700Z,24.90
2018-08-18T16:07:46.449Z,24.90
2018-08-18T16:12:50.562Z,24.90
2018-08-18T16:17:54.658Z,24.70
2018-08-18T16:22:59.012Z,24.90
2018-08-18T16:28:03.464Z,25.00
2018-08-18T16:33:14.525Z,24.90
2018-08-18T16:38:18.175Z,24.70
2018-08-18T16:43:21.697Z,24.50
2018-08-18T16:48:25.330Z,24.70
2018-08-18T16:53:28.935Z,24.60
2018-08-18T16:58:32.498Z,24.60
2018-08-18T17:03:36.306Z,24.50
2018-08-18T17:08:40.038Z,24.20
2018-08-18T17:13:44.770Z,24.20
2018-08-18T17:18:48.363Z,24.10
2018-08-18T17:23:52.003Z,24.10
2018-08-18T17:28:55.687Z,23.90
2018-08-18T17:33:59.360Z,23.90
2018-08-18T17:39:03.480Z,24.00
2018-08-18T17:44:07.106Z,23.90
2018-08-18T17:49:10.731Z,23.80
2018-08-18T17:54:14.731Z,23.80
2018-08-18T17:59:21.570Z,23.70
2018-08-18T18:04:26.434Z,23.50
2018-08-18T18:09:32.167Z,23.50
2018-08-18T18:14:35.801Z,23.30
2018-08-18T18:19:39.445Z,23.40
2018-08-18T18:24:55.558Z,23.20
2018-08-18T18:35:27.393Z,23.20
2018-08-18T18:40:34.869Z,22.90
2018-08-18T18:45:38.706Z,22.90
2018-08-18T18:50:45.029Z,22.80
2018-08-18T18:55:53.691Z,22.80
2018-08-18T19:01:02.515Z,22.90
2018-08-18T19:06:06.173Z,22.70
2018-08-18T19:11:09.752Z,22.50
2018-08-18T19:16:13.473Z,22.40
2018-08-18T19:21:17.231Z,22.00
2018-08-18T19:26:20.843Z,21.80
2018-08-18T19:31:28.620Z,21.80
2018-08-18T19:36:32.568Z,21.80
2018-08-18T19:47:07.157Z,21.90
2018-08-18T19:52:12.640Z,22.00
2018-08-18T20:08:21.075Z,21.90
2018-08-18T20:24:34.507Z,22.20
2018-08-18T20:35:10.808Z,22.20
2018-08-18T20:40:15.151Z,22.30
2018-08-18T20:45:18.764Z,22.20
2018-08-18T20:50:22.356Z,22.20
2018-08-18T20:55:25.969Z,22.10
2018-08-18T21:00:29.710Z,22.10
2018-08-18T21:05:33.982Z,22.00
2018-08-18T21:10:37.600Z,22.00
2018-08-18T21:15:41.294Z,21.90
2018-08-18T21:20:44.922Z,21.80
2018-08-18T21:25:50.249Z,21.80
2018-08-18T21:30:54.505Z,21.80
2018-08-18T21:35:59.631Z,21.60
2018-08-18T21:41:04.214Z,21.70
2018-08-18T21:46:07.941Z,21.60
2018-08-18T21:51:11.559Z,21.50
2018-08-18T21:56:15.161Z,21.30
2018-08-18T22:01:20.235Z,21.40
2018-08-18T22:06:23.918Z,21.30
2018-08-18T22:11:27.493Z,21.20
2018-08-18T22:16:31.103Z,21.30
2018-08-18T22:21:34.746Z,21.10
2018-08-18T22:26:39.714Z,21.00
2018-08-18T22:31:43.365Z,21.00
2018-08-18T22:36:46.978Z,20.90
2018-08-18T22:41:50.616Z,21.00
2018-08-18T22:46:54.881Z,20.80
2018-08-18T22:51:58.474Z,20.90
2018-08-18T22:57:03.529Z,20.80
2018-08-18T23:02:07.182Z,20.80
2018-08-18T23:07:10.814Z,20.70
2018-08-18T23:12:14.389Z,20.70
2018-08-18T23:17:17.982Z,20.50
2018-08-18T23:22:32.870Z,20.60
2018-08-18T23:27:36.426Z,20.50
2018-08-18T23:32:40.126Z,20.50
2018-08-18T23:37:43.753Z,20.50
2018-08-18T23:42:47.320Z,20.50
2018-08-18T23:47:57.157Z,20.40
2018-08-18T23:53:07.722Z,20.30
2018-08-18T23:58:11.344Z,20.30
